sensor_id;sensor_type;location;lat;lon;timestamp;pressure;altitude;pressure_sealevel;temperature;humidity
56944;BME280;42848;42.524;12.052;2023-04-16T00:01:39;95560.44;;;8.75;100.00
56944;BME280;42848;42.524;12.052;2023-04-16T00:04:05;95562.59;;;8.70;100.00
56944;BME280;42848;42.524;12.052;2023-04-16T00:06:31;95559.53;;;8.71;100.00
56944;BME280;42848;42.524;12.052;2023-04-16T00:08:57;95574.66;;;8.72;100.00
56944;BME280;42848;42.524;12.052;2023-04-16T00:11:23;95566.97;;;8.62;100.00
56944;BME280;42848;42.524;12.052;2023-04-16T00:13:48;95572.50;;;8.66;100.00
56944;BME280;42848;42.524;12.052;2023-04-16T00:16:14;95563.94;;;8.64;100.00
56944;BME280;42848;42.524;12.052;2023-04-16T00:18:40;95574.63;;;8.60;100.00
56944;BME280;42848;42.524;12.052;2023-04-16T00:21:06;95580.94;;;8.64;100.00
56944;BME280;42848;42.524;12.052;2023-04-16T00:23:32;95581.16;;;8.59;100.00
56944;BME280;42848;42.524;12.052;2023-04-16T00:25:58;95585.69;;;8.67;100.00
56944;BME280;42848;42.524;12.052;2023-04-16T00:28:26;95586.16;;;8.69;100.00
56944;BME280;42848;42.524;12.052;2023-04-16T00:30:52;95590.28;;;8.67;100.00
56944;BME280;42848;42.524;12.052;2023-04-16T00:33:19;95595.84;;;8.70;100.00
56944;BME280;42848;42.524;12.052;2023-04-16T00:35:45;95590.44;;;8.70;100.00
56944;BME280;42848;42.524;12.052;2023-04-16T00:38:12;95592.66;;;8.68;100.00
56944;BME280;42848;42.524;12.052;2023-04-16T00:40:38;95592.25;;;8.78;100.00
56944;BME280;42848;42.524;12.052;2023-04-16T00:43:04;95595.59;;;8.63;100.00
56944;BME280;42848;42.524;12.052;2023-04-16T00:45:30;95596.50;;;8.67;100.00
56944;BME280;42848;42.524;12.052;2023-04-16T00:47:57;95598.75;;;8.65;100.00
56944;BME280;42848;42.524;12.052;2023-04-16T00:50:23;95594.91;;;8.66;100.00
56944;BME280;42848;42.524;12.052;2023-04-16T00:52:49;95602.03;;;8.71;100.00
56944;BME280;42848;42.524;12.052;2023-04-16T00:55:15;95605.19;;;8.73;100.00
56944;BME280;42848;42.524;12.052;2023-04-16T00:57:44;95598.41;;;8.67;100.00
56944;BME280;42848;42.524;12.052;2023-04-16T01:00:10;95600.75;;;8.56;100.00
56944;BME280;42848;42.524;12.052;2023-04-16T01:02:36;95598.50;;;8.58;100.00
56944;BME280;42848;42.524;12.052;2023-04-16T01:05:03;95595.94;;;8.62;100.00
56944;BME280;42848;42.524;12.052;2023-04-16T01:07:30;95599.44;;;8.62;100.00
56944;BME280;42848;42.524;12.052;2023-04-16T01:09:56;95605.03;;;8.57;100.00
56944;BME280;42848;42.524;12.052;2023-04-16T01:12:22;95608.44;;;8.66;100.00
56944;BME280;42848;42.524;12.052;2023-04-16T01:14:48;95606.84;;;8.53;100.00
56944;BME280;42848;42.524;12.052;2023-04-16T01:17:14;95611.31;;;8.49;100.00
56944;BME280;42848;42.524;12.052;2023-04-16T01:19:39;95599.63;;;8.57;100.00
56944;BME280;42848;42.524;12.052;2023-04-16T01:22:05;95603.69;;;8.51;100.00
56944;BME280;42848;42.524;12.052;2023-04-16T01:24:31;95605.28;;;8.52;100.00
56944;BME280;42848;42.524;12.052;2023-04-16T01:26:57;95612.97;;;8.74;100.00
56944;BME280;42848;42.524;12.052;2023-04-16T01:29:24;95611.56;;;8.56;100.00
56944;BME280;42848;42.524;12.052;2023-04-16T01:31:50;95613.25;;;8.48;100.00
56944;BME280;42848;42.524;12.052;2023-04-16T01:34:16;95613.59;;;8.59;100.00
56944;BME280;42848;42.524;12.052;2023-04-16T01:36:41;95607.84;;;8.48;100.00
56944;BME280;42848;42.524;12.052;2023-04-16T01:39:07;95608.69;;;8.61;100.00
56944;BME280;42848;42.524;12.052;2023-04-16T01:41:38;95615.91;;;8.69;100.00
56944;BME280;42848;42.524;12.052;2023-04-16T01:44:03;95610.06;;;8.79;100.00
56944;BME280;42848;42.524;12.052;2023-04-16T01:46:33;95606.94;;;9.02;100.00
56944;BME280;42848;42.524;12.052;2023-04-16T01:49:00;95614.13;;;8.86;100.00
56944;BME280;42848;42.524;12.052;2023-04-16T01:51:26;95618.00;;;9.09;100.00
56944;BME280;42848;42.524;12.052;2023-04-16T01:53:53;95615.44;;;9.25;100.00
56944;BME280;42848;42.524;12.052;2023-04-16T01:56:19;95624.44;;;9.17;100.00
56944;BME280;42848;42.524;12.052;2023-04-16T01:58:45;95620.22;;;8.82;100.00
56944;BME280;42848;42.524;12.052;2023-04-16T02:01:12;95621.69;;;8.80;100.00
56944;BME280;42848;42.524;12.052;2023-04-16T02:03:38;95624.94;;;8.86;100.00
56944;BME280;42848;42.524;12.052;2023-04-16T02:06:04;95633.94;;;8.77;100.00
56944;BME280;42848;42.524;12.052;2023-04-16T02:08:30;95635.22;;;8.80;100.00
56944;BME280;42848;42.524;12.052;2023-04-16T02:10:56;95633.28;;;8.80;100.00
56944;BME280;42848;42.524;12.052;2023-04-16T02:13:22;95625.56;;;8.58;100.00
56944;BME280;42848;42.524;12.052;2023-04-16T02:15:51;95629.91;;;8.83;100.00
56944;BME280;42848;42.524;12.052;2023-04-16T02:18:17;95628.06;;;8.63;100.00
56944;BME280;42848;42.524;12.052;2023-04-16T02:20:45;95626.13;;;8.51;100.00
56944;BME280;42848;42.524;12.052;2023-04-16T02:23:12;95618.66;;;8.48;100.00
56944;BME280;42848;42.524;12.052;2023-04-16T02:25:44;95620.78;;;8.43;100.00
56944;BME280;42848;42.524;12.052;2023-04-16T02:28:12;95614.91;;;8.41;100.00
56944;BME280;42848;42.524;12.052;2023-04-16T02:30:39;95620.78;;;8.43;100.00
56944;BME280;42848;42.524;12.052;2023-04-16T02:33:24;95619.66;;;8.44;100.00
56944;BME280;42848;42.524;12.052;2023-04-16T02:35:51;95614.91;;;8.41;100.00
56944;BME280;42848;42.524;12.052;2023-04-16T02:38:16;95620.97;;;8.38;100.00
56944;BME280;42848;42.524;12.052;2023-04-16T02:40:42;95615.84;;;8.45;100.00
56944;BME280;42848;42.524;12.052;2023-04-16T02:43:08;95620.84;;;8.34;100.00
56944;BME280;42848;42.524;12.052;2023-04-16T02:45:33;95615.75;;;8.33;100.00
56944;BME280;42848;42.524;12.052;2023-04-16T02:47:59;95612.88;;;8.38;100.00
56944;BME280;42848;42.524;12.052;2023-04-16T02:50:25;95615.44;;;8.34;100.00
56944;BME280;42848;42.524;12.052;2023-04-16T02:52:51;95618.88;;;8.43;100.00
56944;BME280;42848;42.524;12.052;2023-04-16T02:55:17;95618.31;;;8.29;100.00
56944;BME280;42848;42.524;12.052;2023-04-16T02:57:42;95611.44;;;8.32;100.00
56944;BME280;42848;42.524;12.052;2023-04-16T03:00:08;95629.66;;;8.22;100.00
56944;BME280;42848;42.524;12.052;2023-04-16T03:02:34;95624.06;;;8.27;100.00
56944;BME280;42848;42.524;12.052;2023-04-16T03:05:00;95616.41;;;8.30;100.00
56944;BME280;42848;42.524;12.052;2023-04-16T03:07:26;95622.09;;;8.37;100.00
56944;BME280;42848;42.524;12.052;2023-04-16T03:09:51;95620.31;;;8.41;100.00
56944;BME280;42848;42.524;12.052;2023-04-16T03:12:17;95622.94;;;8.28;100.00
56944;BME280;42848;42.524;12.052;2023-04-16T03:14:43;95625.72;;;8.20;100.00
56944;BME280;42848;42.524;12.052;2023-04-16T03:17:08;95625.53;;;8.25;100.00
56944;BME280;42848;42.524;12.052;2023-04-16T03:19:34;95627.06;;;8.35;100.00
56944;BME280;42848;42.524;12.052;2023-04-16T03:22:00;95625.06;;;8.23;100.00
56944;BME280;42848;42.524;12.052;2023-04-16T03:24:25;95629.94;;;8.30;100.00
56944;BME280;42848;42.524;12.052;2023-04-16T03:26:52;95628.34;;;8.28;100.00
56944;BME280;42848;42.524;12.052;2023-04-16T03:29:18;95627.69;;;8.32;100.00
56944;BME280;42848;42.524;12.052;2023-04-16T03:31:43;95623.41;;;8.31;100.00
56944;BME280;42848;42.524;12.052;2023-04-16T03:34:09;95627.50;;;8.37;100.00
56944;BME280;42848;42.524;12.052;2023-04-16T03:36:35;95629.38;;;8.57;100.00
56944;BME280;42848;42.524;12.052;2023-04-16T03:39:00;95628.03;;;8.51;100.00
56944;BME280;42848;42.524;12.052;2023-04-16T03:41:26;95633.22;;;8.56;100.00
56944;BME280;42848;42.524;12.052;2023-04-16T03:43:52;95631.03;;;8.49;100.00
56944;BME280;42848;42.524;12.052;2023-04-16T03:46:17;95624.81;;;8.70;100.00
56944;BME280;42848;42.524;12.052;2023-04-16T03:48:43;95630.78;;;8.75;100.00
56944;BME280;42848;42.524;12.052;2023-04-16T03:51:08;95636.03;;;8.93;100.00
56944;BME280;42848;42.524;12.052;2023-04-16T03:53:34;95644.75;;;8.77;100.00
56944;BME280;42848;42.524;12.052;2023-04-16T03:56:00;95634.34;;;8.55;100.00
56944;BME280;42848;42.524;12.052;2023-04-16T03:58:26;95631.31;;;8.57;100.00
56944;BME280;42848;42.524;12.052;2023-04-16T04:00:54;95627.78;;;8.89;100.00
56944;BME280;42848;42.524;12.052;2023-04-16T04:03:20;95630.59;;;8.93;100.00
56944;BME280;42848;42.524;12.052;2023-04-16T04:05:46;95638.72;;;9.05;100.00
56944;BME280;42848;42.524;12.052;2023-04-16T04:08:11;95650.50;;;8.64;100.00
56944;BME280;42848;42.524;12.052;2023-04-16T04:10:37;95651.44;;;8.47;100.00
56944;BME280;42848;42.524;12.052;2023-04-16T04:13:04;95646.13;;;8.71;100.00
56944;BME280;42848;42.524;12.052;2023-04-16T04:15:31;95647.44;;;8.65;100.00
56944;BME280;42848;42.524;12.052;2023-04-16T04:17:57;95648.28;;;8.45;100.00
56944;BME280;42848;42.524;12.052;2023-04-16T04:20:23;95654.44;;;8.66;100.00
56944;BME280;42848;42.524;12.052;2023-04-16T04:22:49;95642.94;;;8.36;100.00
56944;BME280;42848;42.524;12.052;2023-04-16T04:25:16;95651.69;;;8.54;100.00
56944;BME280;42848;42.524;12.052;2023-04-16T04:27:42;95645.19;;;8.67;100.00
56944;BME280;42848;42.524;12.052;2023-04-16T04:30:08;95661.09;;;8.36;100.00
56944;BME280;42848;42.524;12.052;2023-04-16T04:32:34;95660.56;;;8.42;100.00
56944;BME280;42848;42.524;12.052;2023-04-16T04:35:01;95660.00;;;8.49;100.00
56944;BME280;42848;42.524;12.052;2023-04-16T04:37:28;95667.94;;;8.54;100.00
56944;BME280;42848;42.524;12.052;2023-04-16T04:39:53;95671.78;;;8.65;100.00
56944;BME280;42848;42.524;12.052;2023-04-16T04:42:19;95678.59;;;8.71;100.00
56944;BME280;42848;42.524;12.052;2023-04-16T04:44:45;95665.34;;;8.91;100.00
56944;BME280;42848;42.524;12.052;2023-04-16T04:47:12;95678.84;;;8.78;100.00
56944;BME280;42848;42.524;12.052;2023-04-16T04:49:38;95679.41;;;8.51;100.00
56944;BME280;42848;42.524;12.052;2023-04-16T04:52:04;95676.00;;;8.42;100.00
56944;BME280;42848;42.524;12.052;2023-04-16T04:54:31;95680.97;;;8.73;100.00
56944;BME280;42848;42.524;12.052;2023-04-16T04:56:57;95690.53;;;8.49;100.00
56944;BME280;42848;42.524;12.052;2023-04-16T04:59:23;95700.34;;;8.75;100.00
56944;BME280;42848;42.524;12.052;2023-04-16T05:01:50;95706.00;;;8.82;100.00
56944;BME280;42848;42.524;12.052;2023-04-16T05:04:16;95707.09;;;8.48;100.00
56944;BME280;42848;42.524;12.052;2023-04-16T05:06:42;95716.72;;;8.78;100.00
56944;BME280;42848;42.524;12.052;2023-04-16T05:09:09;95712.63;;;8.72;100.00
56944;BME280;42848;42.524;12.052;2023-04-16T05:11:40;95723.06;;;8.41;100.00
56944;BME280;42848;42.524;12.052;2023-04-16T05:14:06;95727.88;;;8.56;100.00
56944;BME280;42848;42.524;12.052;2023-04-16T05:16:34;95717.53;;;8.37;100.00
56944;BME280;42848;42.524;12.052;2023-04-16T05:19:00;95725.81;;;8.74;100.00
56944;BME280;42848;42.524;12.052;2023-04-16T05:21:26;95732.47;;;8.76;100.00
56944;BME280;42848;42.524;12.052;2023-04-16T05:23:52;95716.56;;;8.42;100.00
56944;BME280;42848;42.524;12.052;2023-04-16T05:26:18;95733.03;;;8.49;100.00
56944;BME280;42848;42.524;12.052;2023-04-16T05:28:44;95741.81;;;8.46;100.00
56944;BME280;42848;42.524;12.052;2023-04-16T05:31:09;95735.16;;;8.43;100.00
56944;BME280;42848;42.524;12.052;2023-04-16T05:33:35;95739.97;;;8.38;100.00
56944;BME280;42848;42.524;12.052;2023-04-16T05:36:01;95737.06;;;8.43;100.00
56944;BME280;42848;42.524;12.052;2023-04-16T05:38:26;95746.78;;;8.44;100.00
56944;BME280;42848;42.524;12.052;2023-04-16T05:40:52;95756.97;;;8.59;100.00
56944;BME280;42848;42.524;12.052;2023-04-16T05:43:18;95744.94;;;8.90;100.00
56944;BME280;42848;42.524;12.052;2023-04-16T05:45:43;95750.69;;;8.67;100.00
56944;BME280;42848;42.524;12.052;2023-04-16T05:48:09;95756.59;;;8.69;100.00
56944;BME280;42848;42.524;12.052;2023-04-16T05:50:36;95753.56;;;8.71;100.00
56944;BME280;42848;42.524;12.052;2023-04-16T05:53:04;95748.13;;;8.50;100.00
56944;BME280;42848;42.524;12.052;2023-04-16T05:55:30;95755.25;;;8.75;100.00
56944;BME280;42848;42.524;12.052;2023-04-16T05:57:55;95747.66;;;8.90;100.00
56944;BME280;42848;42.524;12.052;2023-04-16T06:00:21;95749.72;;;9.05;100.00
56944;BME280;42848;42.524;12.052;2023-04-16T06:02:47;95757.03;;;9.25;100.00
56944;BME280;42848;42.524;12.052;2023-04-16T06:05:12;95749.34;;;9.27;100.00
56944;BME280;42848;42.524;12.052;2023-04-16T06:07:38;95757.31;;;9.11;100.00
56944;BME280;42848;42.524;12.052;2023-04-16T06:10:04;95764.19;;;9.09;100.00
56944;BME280;42848;42.524;12.052;2023-04-16T06:12:30;95766.31;;;9.36;100.00
56944;BME280;42848;42.524;12.052;2023-04-16T06:14:55;95759.75;;;9.04;100.00
56944;BME280;42848;42.524;12.052;2023-04-16T06:17:21;95763.22;;;9.26;100.00
56944;BME280;42848;42.524;12.052;2023-04-16T06:19:47;95755.00;;;9.34;100.00
56944;BME280;42848;42.524;12.052;2023-04-16T06:22:13;95753.72;;;9.20;100.00
56944;BME280;42848;42.524;12.052;2023-04-16T06:24:38;95745.94;;;9.18;100.00
56944;BME280;42848;42.524;12.052;2023-04-16T06:27:04;95772.19;;;9.05;100.00
56944;BME280;42848;42.524;12.052;2023-04-16T06:29:30;95746.78;;;8.98;100.00
56944;BME280;42848;42.524;12.052;2023-04-16T06:31:56;95746.38;;;9.08;100.00
56944;BME280;42848;42.524;12.052;2023-04-16T06:34:21;95745.47;;;8.83;100.00
56944;BME280;42848;42.524;12.052;2023-04-16T06:36:47;95744.94;;;8.90;100.00
56944;BME280;42848;42.524;12.052;2023-04-16T06:39:13;95749.31;;;8.82;100.00
56944;BME280;42848;42.524;12.052;2023-04-16T06:41:39;95756.53;;;8.78;100.00
56944;BME280;42848;42.524;12.052;2023-04-16T06:44:04;95751.28;;;8.94;100.00
56944;BME280;42848;42.524;12.052;2023-04-16T06:46:30;95753.41;;;8.88;100.00
56944;BME280;42848;42.524;12.052;2023-04-16T06:48:56;95746.94;;;8.80;100.00
56944;BME280;42848;42.524;12.052;2023-04-16T06:51:22;95746.38;;;9.08;100.00
56944;BME280;42848;42.524;12.052;2023-04-16T06:53:48;95753.56;;;9.04;100.00
56944;BME280;42848;42.524;12.052;2023-04-16T06:56:14;95745.34;;;9.12;100.00
56944;BME280;42848;42.524;12.052;2023-04-16T06:58:39;95755.66;;;9.19;100.00
56944;BME280;42848;42.524;12.052;2023-04-16T07:01:05;95753.44;;;9.33;100.00
56944;BME280;42848;42.524;12.052;2023-04-16T07:03:31;95759.31;;;9.48;100.00
56944;BME280;42848;42.524;12.052;2023-04-16T07:05:56;95760.47;;;9.59;100.00
56944;BME280;42848;42.524;12.052;2023-04-16T07:08:22;95764.09;;;9.63;100.00
56944;BME280;42848;42.524;12.052;2023-04-16T07:10:48;95748.88;;;9.71;100.00
56944;BME280;42848;42.524;12.052;2023-04-16T07:13:14;95776.66;;;9.80;100.00
56944;BME280;42848;42.524;12.052;2023-04-16T07:15:40;95769.50;;;9.63;100.00
56944;BME280;42848;42.524;12.052;2023-04-16T07:18:05;95763.19;;;9.71;100.00
56944;BME280;42848;42.524;12.052;2023-04-16T07:20:31;95774.88;;;9.51;100.00
56944;BME280;42848;42.524;12.052;2023-04-16T07:22:57;95774.88;;;9.51;100.00
56944;BME280;42848;42.524;12.052;2023-04-16T07:25:23;95779.53;;;9.50;100.00
56944;BME280;42848;42.524;12.052;2023-04-16T07:27:50;95775.72;;;9.51;100.00
56944;BME280;42848;42.524;12.052;2023-04-16T07:30:16;95766.81;;;9.63;100.00
56944;BME280;42848;42.524;12.052;2023-04-16T07:32:42;95783.50;;;9.65;100.00
56944;BME280;42848;42.524;12.052;2023-04-16T07:35:08;95775.13;;;9.58;100.00
56944;BME280;42848;42.524;12.052;2023-04-16T07:37:33;95782.84;;;9.80;100.00
56944;BME280;42848;42.524;12.052;2023-04-16T07:39:59;95777.66;;;9.63;100.00
56944;BME280;42848;42.524;12.052;2023-04-16T07:42:26;95786.84;;;9.50;100.00
56944;BME280;42848;42.524;12.052;2023-04-16T07:44:52;95780.00;;;9.52;100.00
56944;BME280;42848;42.524;12.052;2023-04-16T07:47:18;95779.31;;;9.55;100.00
56944;BME280;42848;42.524;12.052;2023-04-16T07:49:43;95791.63;;;9.65;100.00
56944;BME280;42848;42.524;12.052;2023-04-16T07:52:09;95793.00;;;9.71;100.00
56944;BME280;42848;42.524;12.052;2023-04-16T07:54:35;95802.91;;;9.55;100.00
56944;BME280;42848;42.524;12.052;2023-04-16T07:57:00;95795.22;;;9.57;100.00
56944;BME280;42848;42.524;12.052;2023-04-16T07:59:26;95783.34;;;9.49;100.00
56944;BME280;42848;42.524;12.052;2023-04-16T08:01:52;95793.75;;;9.59;100.00
56944;BME280;42848;42.524;12.052;2023-04-16T08:04:19;95803.94;;;9.62;100.00
56944;BME280;42848;42.524;12.052;2023-04-16T08:06:49;95794.59;;;9.84;100.00
56944;BME280;42848;42.524;12.052;2023-04-16T08:09:16;95805.78;;;9.71;100.00
56944;BME280;42848;42.524;12.052;2023-04-16T08:11:41;95803.19;;;9.86;100.00
56944;BME280;42848;42.524;12.052;2023-04-16T08:14:07;95798.22;;;9.88;100.00
56944;BME280;42848;42.524;12.052;2023-04-16T08:16:33;95802.31;;;10.07;100.00
56944;BME280;42848;42.524;12.052;2023-04-16T08:18:58;95812.22;;;10.03;100.00
56944;BME280;42848;42.524;12.052;2023-04-16T08:21:26;95806.25;;;10.09;100.00
56944;BME280;42848;42.524;12.052;2023-04-16T08:23:52;95801.06;;;10.16;100.00
56944;BME280;42848;42.524;12.052;2023-04-16T08:26:18;95789.94;;;10.58;100.00
56944;BME280;42848;42.524;12.052;2023-04-16T08:28:44;95791.22;;;10.48;100.00
56944;BME280;42848;42.524;12.052;2023-04-16T08:31:10;95795.53;;;10.37;100.00
56944;BME280;42848;42.524;12.052;2023-04-16T08:33:36;95795.63;;;10.53;100.00
56944;BME280;42848;42.524;12.052;2023-04-16T08:36:01;95800.03;;;10.33;100.00
56944;BME280;42848;42.524;12.052;2023-04-16T08:38:28;95808.97;;;10.46;100.00
56944;BME280;42848;42.524;12.052;2023-04-16T08:40:55;95809.75;;;10.10;100.00
56944;BME280;42848;42.524;12.052;2023-04-16T08:43:22;95803.09;;;10.32;100.00
56944;BME280;42848;42.524;12.052;2023-04-16T08:45:48;95819.69;;;10.18;100.00
56944;BME280;42848;42.524;12.052;2023-04-16T08:48:15;95833.50;;;10.37;100.00
56944;BME280;42848;42.524;12.052;2023-04-16T08:50:42;95812.50;;;10.34;100.00
56944;BME280;42848;42.524;12.052;2023-04-16T08:53:10;95852.00;;;10.11;100.00
56944;BME280;42848;42.524;12.052;2023-04-16T08:55:46;95835.06;;;10.02;100.00
56944;BME280;42848;42.524;12.052;2023-04-16T08:58:14;95836.91;;;10.22;100.00
56944;BME280;42848;42.524;12.052;2023-04-16T09:00:40;95824.91;;;10.23;100.00
56944;BME280;42848;42.524;12.052;2023-04-16T09:03:08;95847.09;;;10.25;100.00
56944;BME280;42848;42.524;12.052;2023-04-16T09:05:35;95852.84;;;10.36;100.00
56944;BME280;42848;42.524;12.052;2023-04-16T09:08:03;95843.91;;;10.35;100.00
56944;BME280;42848;42.524;12.052;2023-04-16T09:10:28;95850.13;;;10.48;100.00
56944;BME280;42848;42.524;12.052;2023-04-16T09:12:55;95872.63;;;10.61;100.00
56944;BME280;42848;42.524;12.052;2023-04-16T09:15:22;95862.56;;;10.49;100.00
56944;BME280;42848;42.524;12.052;2023-04-16T09:17:48;95860.97;;;10.72;100.00
56944;BME280;42848;42.524;12.052;2023-04-16T09:20:14;95883.25;;;10.66;100.00
56944;BME280;42848;42.524;12.052;2023-04-16T09:22:39;95873.31;;;10.70;100.00
56944;BME280;42848;42.524;12.052;2023-04-16T09:25:06;95862.69;;;10.52;100.00
56944;BME280;42848;42.524;12.052;2023-04-16T09:27:32;95852.13;;;10.75;100.00
56944;BME280;42848;42.524;12.052;2023-04-16T09:29:57;95864.03;;;10.71;100.00
56944;BME280;42848;42.524;12.052;2023-04-16T09:32:25;95866.38;;;10.72;100.00
56944;BME280;42848;42.524;12.052;2023-04-16T09:35:00;95902.47;;;10.73;100.00
56944;BME280;42848;42.524;12.052;2023-04-16T09:37:27;95886.44;;;10.43;100.00
56944;BME280;42848;42.524;12.052;2023-04-16T09:39:56;95894.56;;;10.56;100.00
56944;BME280;42848;42.524;12.052;2023-04-16T09:42:34;95870.25;;;10.71;100.00
56944;BME280;42848;42.524;12.052;2023-04-16T09:45:00;95913.22;;;10.45;100.00
56944;BME280;42848;42.524;12.052;2023-04-16T09:47:41;95898.63;;;10.49;100.00
56944;BME280;42848;42.524;12.052;2023-04-16T09:50:08;95889.81;;;10.52;100.00
56944;BME280;42848;42.524;12.052;2023-04-16T09:52:37;95883.94;;;10.63;100.00
56944;BME280;42848;42.524;12.052;2023-04-16T09:55:03;95885.91;;;11.02;100.00
56944;BME280;42848;42.524;12.052;2023-04-16T09:57:29;95877.41;;;11.04;100.00
56944;BME280;42848;42.524;12.052;2023-04-16T10:00:06;95894.53;;;11.32;100.00
56944;BME280;42848;42.524;12.052;2023-04-16T10:02:33;95878.19;;;11.17;100.00
56944;BME280;42848;42.524;12.052;2023-04-16T10:05:02;95861.78;;;11.41;100.00
56944;BME280;42848;42.524;12.052;2023-04-16T10:07:28;95870.13;;;11.48;100.00
56944;BME280;42848;42.524;12.052;2023-04-16T10:09:57;95873.66;;;11.49;100.00
56944;BME280;42848;42.524;12.052;2023-04-16T10:12:23;95864.41;;;11.65;100.00
56944;BME280;42848;42.524;12.052;2023-04-16T10:14:48;95869.25;;;11.72;100.00
56944;BME280;42848;42.524;12.052;2023-04-16T10:17:16;95878.34;;;11.92;100.00
56944;BME280;42848;42.524;12.052;2023-04-16T10:19:42;95881.75;;;12.05;100.00
56944;BME280;42848;42.524;12.052;2023-04-16T10:22:08;95873.41;;;11.98;100.00
56944;BME280;42848;42.524;12.052;2023-04-16T10:24:33;95899.03;;;11.81;100.00
56944;BME280;42848;42.524;12.052;2023-04-16T10:27:00;95888.22;;;11.84;100.00
56944;BME280;42848;42.524;12.052;2023-04-16T10:29:28;95879.22;;;11.68;100.00
56944;BME280;42848;42.524;12.052;2023-04-16T10:31:55;95890.72;;;12.05;100.00
56944;BME280;42848;42.524;12.052;2023-04-16T10:34:21;95878.84;;;11.82;100.00
56944;BME280;42848;42.524;12.052;2023-04-16T10:36:52;95886.00;;;12.18;100.00
56944;BME280;42848;42.524;12.052;2023-04-16T10:39:23;95888.28;;;12.63;100.00
56944;BME280;42848;42.524;12.052;2023-04-16T10:41:49;95927.84;;;12.13;100.00
56944;BME280;42848;42.524;12.052;2023-04-16T10:44:17;95890.63;;;12.02;100.00
56944;BME280;42848;42.524;12.052;2023-04-16T10:46:46;95875.00;;;12.14;100.00
56944;BME280;42848;42.524;12.052;2023-04-16T10:49:22;95880.22;;;12.19;100.00
56944;BME280;42848;42.524;12.052;2023-04-16T10:51:58;95880.03;;;12.44;100.00
56944;BME280;42848;42.524;12.052;2023-04-16T10:54:27;95890.13;;;12.28;100.00
56944;BME280;42848;42.524;12.052;2023-04-16T10:56:56;95907.31;;;12.00;100.00
56944;BME280;42848;42.524;12.052;2023-04-16T10:59:23;95886.78;;;12.18;100.00
56944;BME280;42848;42.524;12.052;2023-04-16T11:01:54;95900.03;;;12.04;100.00
56944;BME280;42848;42.524;12.052;2023-04-16T11:10:04;95923.00;;;11.91;100.00
56944;BME280;42848;42.524;12.052;2023-04-16T11:12:41;95919.25;;;12.11;100.00
56944;BME280;42848;42.524;12.052;2023-04-16T11:15:14;95929.09;;;12.32;100.00
56944;BME280;42848;42.524;12.052;2023-04-16T11:17:45;95920.59;;;12.17;100.00
56944;BME280;42848;42.524;12.052;2023-04-16T11:20:20;95905.75;;;12.31;100.00
56944;BME280;42848;42.524;12.052;2023-04-16T11:22:50;95909.25;;;12.00;100.00
56944;BME280;42848;42.524;12.052;2023-04-16T11:25:28;95946.38;;;12.08;100.00
56944;BME280;42848;42.524;12.052;2023-04-16T11:27:55;95922.06;;;12.31;100.00
56944;BME280;42848;42.524;12.052;2023-04-16T11:30:36;95933.03;;;12.34;100.00
56944;BME280;42848;42.524;12.052;2023-04-16T11:33:03;95941.03;;;12.11;100.00
56944;BME280;42848;42.524;12.052;2023-04-16T11:35:29;95932.09;;;12.27;100.00
56944;BME280;42848;42.524;12.052;2023-04-16T11:37:56;95945.22;;;12.09;100.00
56944;BME280;42848;42.524;12.052;2023-04-16T11:40:23;95954.84;;;12.50;100.00
56944;BME280;42848;42.524;12.052;2023-04-16T11:42:49;95936.84;;;12.45;100.00
56944;BME280;42848;42.524;12.052;2023-04-16T11:45:15;95936.69;;;12.54;100.00
56944;BME280;42848;42.524;12.052;2023-04-16T11:47:45;95952.63;;;12.87;100.00
56944;BME280;42848;42.524;12.052;2023-04-16T11:50:19;95930.25;;;12.62;100.00
56944;BME280;42848;42.524;12.052;2023-04-16T11:52:46;95949.13;;;12.87;100.00
56944;BME280;42848;42.524;12.052;2023-04-16T11:55:12;95938.31;;;12.90;100.00
56944;BME280;42848;42.524;12.052;2023-04-16T11:57:37;95940.41;;;12.97;100.00
56944;BME280;42848;42.524;12.052;2023-04-16T12:00:03;95928.91;;;12.88;100.00
56944;BME280;42848;42.524;12.052;2023-04-16T12:02:42;95929.97;;;12.67;100.00
56944;BME280;42848;42.524;12.052;2023-04-16T12:08:09;95956.41;;;12.51;100.00
56944;BME280;42848;42.524;12.052;2023-04-16T12:10:37;95946.41;;;12.39;100.00
56944;BME280;42848;42.524;12.052;2023-04-16T12:13:16;95932.03;;;12.55;100.00
56944;BME280;42848;42.524;12.052;2023-04-16T12:15:55;95911.34;;;12.69;100.00
56944;BME280;42848;42.524;12.052;2023-04-16T12:18:23;95904.56;;;12.79;100.00
56944;BME280;42848;42.524;12.052;2023-04-16T12:20:53;95915.16;;;12.65;100.00
56944;BME280;42848;42.524;12.052;2023-04-16T12:23:29;95927.88;;;12.76;100.00
56944;BME280;42848;42.524;12.052;2023-04-16T12:25:55;95920.22;;;12.19;100.00
56944;BME280;42848;42.524;12.052;2023-04-16T12:28:32;95930.56;;;12.13;100.00
56944;BME280;42848;42.524;12.052;2023-04-16T12:30:58;95932.22;;;12.02;100.00
56944;BME280;42848;42.524;12.052;2023-04-16T12:33:24;95938.53;;;12.06;100.00
56944;BME280;42848;42.524;12.052;2023-04-16T12:35:50;95923.50;;;12.72;100.00
56944;BME280;42848;42.524;12.052;2023-04-16T12:38:16;95935.75;;;12.97;100.00
56944;BME280;42848;42.524;12.052;2023-04-16T12:40:42;95957.47;;;12.46;100.00
56944;BME280;42848;42.524;12.052;2023-04-16T12:43:08;95936.59;;;12.35;100.00
56944;BME280;42848;42.524;12.052;2023-04-16T12:45:35;95928.56;;;12.42;100.00
56944;BME280;42848;42.524;12.052;2023-04-16T12:48:01;95932.09;;;12.58;100.00
56944;BME280;42848;42.524;12.052;2023-04-16T12:50:27;95937.53;;;12.58;100.00
56944;BME280;42848;42.524;12.052;2023-04-16T12:52:54;95929.38;;;12.74;100.00